Airfield :
LOGIN :

Register | Disclaimer

   EN    FR    IT 

 










Legend :    VFR   Marginal VFR   IFR   Intensive IFR   Very Intensive IFR
Visi :
Ceiling :
>= 8 km
>= 3000ft
5 to 8 km
1000 to 3000 ft
1500m to 5 km
500 to 1000 ft
800 to 1500m
200 to 500 ft
< 800m
< 200 ft
Symbols :   Thunderstorms  Fog  Heavy snow  Heavy precipitations  Wind > 20 kt
SIGMETs :     Misc.  Thunderstorms  Icing  Turbulence  Mountain Waves  Volcanic Ashes






- Airport Elevation : 7 ft
- IATA code : POW


LJPZ - Portoroz

CURRENT METAR :
  • 230300Z AUTO 13009KT 9999 FEW065/// BKN230/// 12/07 Q0995

EXPIRED METARs :
  • 230230Z AUTO 13011KT 9999 FEW065/// BKN220/// 12/07 Q0995
  • 230200Z AUTO 14010KT 110V180 9999 SCT050/// BKN065/// BKN210/// 12/07 Q0995
  • 230130Z AUTO 13010KT 9999 FEW050/// BKN210/// 12/07 Q0996
  • 230100Z AUTO 13011KT 9999 NSC 12/07 Q0996
  • 230030Z AUTO 15011KT 100V190 9999 NSC 12/08 Q0996

TAF TAF LJPZ
Valid from the 23 at 03:00 until the 23 at 12:00 UTC


230200Z 2303/2312 15012KT 9999 BKN050
TEMPO 2303/2312 16015G25KT RA
PROB40
TEMPO 2303/2306 SHRA SCT035TCU BKN050



MET'MAP, your aeronautical weather chart ! - Copyright ORBIFLY December 2007 - Disclaimer

ORBIFLY MET'MAP TEAM :

Programming & Development : Alexandra Zaïnal
Concept & original design : Baudouin d'Aumeries
Assistance for programming : Marc-Olivier Méhu
Technical & hardware support : Manuel Goepfert

Contact : metmap@orbifly.com




SOURCES & CREDITS :

   NOAA